sensor_id;sensor_type;location;lat;lon;timestamp;P1;P2;P0
67802;PMS5003;72185;51.378;-1.342;2023-12-07T00:00:31;7;7;
67802;PMS5003;72185;51.378;-1.342;2023-12-07T00:02:57;5;5;
67802;PMS5003;72185;51.378;-1.342;2023-12-07T00:05:23;6;6;
67802;PMS5003;72185;51.378;-1.342;2023-12-07T00:07:48;5;5;
67802;PMS5003;72185;51.378;-1.342;2023-12-07T00:10:14;4;4;
67802;PMS5003;72185;51.378;-1.342;2023-12-07T00:12:39;6;6;
67802;PMS5003;72185;51.378;-1.342;2023-12-07T00:15:06;5;5;
67802;PMS5003;72185;51.378;-1.342;2023-12-07T00:17:31;5;5;
67802;PMS5003;72185;51.378;-1.342;2023-12-07T00:19:56;5;5;
67802;PMS5003;72185;51.378;-1.342;2023-12-07T00:22:22;6;6;
67802;PMS5003;72185;51.378;-1.342;2023-12-07T00:24:48;6;6;
67802;PMS5003;72185;51.378;-1.342;2023-12-07T00:27:13;6;6;
67802;PMS5003;72185;51.378;-1.342;2023-12-07T00:29:39;6;6;
67802;PMS5003;72185;51.378;-1.342;2023-12-07T00:32:04;7;6;
67802;PMS5003;72185;51.378;-1.342;2023-12-07T00:34:30;6;6;
67802;PMS5003;72185;51.378;-1.342;2023-12-07T00:36:56;5;5;
67802;PMS5003;72185;51.378;-1.342;2023-12-07T00:39:21;4;4;
67802;PMS5003;72185;51.378;-1.342;2023-12-07T00:41:47;6;6;
67802;PMS5003;72185;51.378;-1.342;2023-12-07T00:44:12;6;5;
67802;PMS5003;72185;51.378;-1.342;2023-12-07T00:46:38;6;6;
67802;PMS5003;72185;51.378;-1.342;2023-12-07T00:49:04;7;7;
67802;PMS5003;72185;51.378;-1.342;2023-12-07T00:51:29;5;5;
67802;PMS5003;72185;51.378;-1.342;2023-12-07T00:53:55;5;5;
67802;PMS5003;72185;51.378;-1.342;2023-12-07T00:56:20;4;4;
67802;PMS5003;72185;51.378;-1.342;2023-12-07T00:58:46;6;6;
67802;PMS5003;72185;51.378;-1.342;2023-12-07T01:01:12;3;3;
67802;PMS5003;72185;51.378;-1.342;2023-12-07T01:03:37;4;4;
67802;PMS5003;72185;51.378;-1.342;2023-12-07T01:06:03;4;4;
67802;PMS5003;72185;51.378;-1.342;2023-12-07T01:08:28;4;4;
67802;PMS5003;72185;51.378;-1.342;2023-12-07T01:10:54;3;3;
67802;PMS5003;72185;51.378;-1.342;2023-12-07T01:13:20;5;5;
67802;PMS5003;72185;51.378;-1.342;2023-12-07T01:15:45;4;4;
67802;PMS5003;72185;51.378;-1.342;2023-12-07T01:18:11;5;5;
67802;PMS5003;72185;51.378;-1.342;2023-12-07T01:20:37;4;4;
67802;PMS5003;72185;51.378;-1.342;2023-12-07T01:23:02;4;4;
67802;PMS5003;72185;51.378;-1.342;2023-12-07T01:25:28;6;5;
67802;PMS5003;72185;51.378;-1.342;2023-12-07T01:27:53;3;3;
67802;PMS5003;72185;51.378;-1.342;2023-12-07T01:30:19;5;5;
67802;PMS5003;72185;51.378;-1.342;2023-12-07T01:32:45;5;5;
67802;PMS5003;72185;51.378;-1.342;2023-12-07T01:35:10;4;4;
67802;PMS5003;72185;51.378;-1.342;2023-12-07T01:37:36;3;3;
67802;PMS5003;72185;51.378;-1.342;2023-12-07T01:40:02;4;4;
67802;PMS5003;72185;51.378;-1.342;2023-12-07T01:42:27;4;4;
67802;PMS5003;72185;51.378;-1.342;2023-12-07T01:44:53;5;5;
67802;PMS5003;72185;51.378;-1.342;2023-12-07T01:47:18;3;3;
67802;PMS5003;72185;51.378;-1.342;2023-12-07T01:49:44;5;5;
67802;PMS5003;72185;51.378;-1.342;2023-12-07T01:52:10;3;3;
67802;PMS5003;72185;51.378;-1.342;2023-12-07T01:54:35;3;3;
67802;PMS5003;72185;51.378;-1.342;2023-12-07T01:57:01;3;3;
67802;PMS5003;72185;51.378;-1.342;2023-12-07T01:59:26;3;3;
67802;PMS5003;72185;51.378;-1.342;2023-12-07T02:01:52;3;3;
67802;PMS5003;72185;51.378;-1.342;2023-12-07T02:04:18;5;5;
67802;PMS5003;72185;51.378;-1.342;2023-12-07T02:06:43;5;5;
67802;PMS5003;72185;51.378;-1.342;2023-12-07T02:09:09;4;4;
67802;PMS5003;72185;51.378;-1.342;2023-12-07T02:11:34;3;3;
67802;PMS5003;72185;51.378;-1.342;2023-12-07T02:14:00;5;5;
67802;PMS5003;72185;51.378;-1.342;2023-12-07T02:16:27;5;5;
67802;PMS5003;72185;51.378;-1.342;2023-12-07T02:18:52;3;3;
67802;PMS5003;72185;51.378;-1.342;2023-12-07T02:21:18;4;4;
67802;PMS5003;72185;51.378;-1.342;2023-12-07T02:23:42;4;4;
67802;PMS5003;72185;51.378;-1.342;2023-12-07T02:26:08;4;3;
67802;PMS5003;72185;51.378;-1.342;2023-12-07T02:28:33;4;4;
67802;PMS5003;72185;51.378;-1.342;2023-12-07T02:30:59;5;3;
67802;PMS5003;72185;51.378;-1.342;2023-12-07T02:33:25;3;3;
67802;PMS5003;72185;51.378;-1.342;2023-12-07T02:35:50;3;3;
67802;PMS5003;72185;51.378;-1.342;2023-12-07T02:38:16;3;3;
67802;PMS5003;72185;51.378;-1.342;2023-12-07T02:40:41;4;3;
67802;PMS5003;72185;51.378;-1.342;2023-12-07T02:43:07;2;2;
67802;PMS5003;72185;51.378;-1.342;2023-12-07T02:45:33;5;5;
67802;PMS5003;72185;51.378;-1.342;2023-12-07T02:47:58;5;4;
67802;PMS5003;72185;51.378;-1.342;2023-12-07T02:50:24;5;5;
67802;PMS5003;72185;51.378;-1.342;2023-12-07T02:52:49;4;4;
67802;PMS5003;72185;51.378;-1.342;2023-12-07T02:55:15;3;3;
67802;PMS5003;72185;51.378;-1.342;2023-12-07T02:57:40;4;4;
67802;PMS5003;72185;51.378;-1.342;2023-12-07T03:00:06;3;3;
67802;PMS5003;72185;51.378;-1.342;2023-12-07T03:02:32;3;3;
67802;PMS5003;72185;51.378;-1.342;2023-12-07T03:04:57;3;2;
67802;PMS5003;72185;51.378;-1.342;2023-12-07T03:07:23;4;4;
67802;PMS5003;72185;51.378;-1.342;2023-12-07T03:09:48;3;3;
67802;PMS5003;72185;51.378;-1.342;2023-12-07T03:12:14;5;4;
67802;PMS5003;72185;51.378;-1.342;2023-12-07T03:14:40;4;4;
67802;PMS5003;72185;51.378;-1.342;2023-12-07T03:17:05;3;3;
67802;PMS5003;72185;51.378;-1.342;2023-12-07T03:19:31;4;4;
67802;PMS5003;72185;51.378;-1.342;2023-12-07T03:21:56;3;3;
67802;PMS5003;72185;51.378;-1.342;2023-12-07T03:24:22;3;3;
67802;PMS5003;72185;51.378;-1.342;2023-12-07T03:26:48;4;4;
67802;PMS5003;72185;51.378;-1.342;2023-12-07T03:29:13;3;3;
67802;PMS5003;72185;51.378;-1.342;2023-12-07T03:31:39;3;3;
67802;PMS5003;72185;51.378;-1.342;2023-12-07T03:34:04;2;2;
67802;PMS5003;72185;51.378;-1.342;2023-12-07T03:36:30;4;3;
67802;PMS5003;72185;51.378;-1.342;2023-12-07T03:38:56;4;4;
67802;PMS5003;72185;51.378;-1.342;2023-12-07T03:41:21;4;4;
67802;PMS5003;72185;51.378;-1.342;2023-12-07T03:43:47;4;4;
67802;PMS5003;72185;51.378;-1.342;2023-12-07T03:46:12;4;4;
67802;PMS5003;72185;51.378;-1.342;2023-12-07T03:48:38;3;2;
67802;PMS5003;72185;51.378;-1.342;2023-12-07T03:51:04;4;4;
67802;PMS5003;72185;51.378;-1.342;2023-12-07T03:53:29;4;4;
67802;PMS5003;72185;51.378;-1.342;2023-12-07T03:55:55;4;4;
67802;PMS5003;72185;51.378;-1.342;2023-12-07T03:58:20;4;4;
67802;PMS5003;72185;51.378;-1.342;2023-12-07T04:00:46;3;3;
67802;PMS5003;72185;51.378;-1.342;2023-12-07T04:03:12;5;3;
67802;PMS5003;72185;51.378;-1.342;2023-12-07T04:05:37;4;4;
67802;PMS5003;72185;51.378;-1.342;2023-12-07T04:08:03;3;3;
67802;PMS5003;72185;51.378;-1.342;2023-12-07T04:10:28;5;5;
67802;PMS5003;72185;51.378;-1.342;2023-12-07T04:12:54;2;2;
67802;PMS5003;72185;51.378;-1.342;2023-12-07T04:15:20;3;2;
67802;PMS5003;72185;51.378;-1.342;2023-12-07T04:17:45;4;4;
67802;PMS5003;72185;51.378;-1.342;2023-12-07T04:20:11;2;2;
67802;PMS5003;72185;51.378;-1.342;2023-12-07T04:22:36;3;3;
67802;PMS5003;72185;51.378;-1.342;2023-12-07T04:25:02;3;3;
67802;PMS5003;72185;51.378;-1.342;2023-12-07T04:27:28;3;3;
67802;PMS5003;72185;51.378;-1.342;2023-12-07T04:29:53;5;4;
67802;PMS5003;72185;51.378;-1.342;2023-12-07T04:32:19;4;4;
67802;PMS5003;72185;51.378;-1.342;2023-12-07T04:34:44;4;4;
67802;PMS5003;72185;51.378;-1.342;2023-12-07T04:37:10;3;3;
67802;PMS5003;72185;51.378;-1.342;2023-12-07T04:39:36;5;5;
67802;PMS5003;72185;51.378;-1.342;2023-12-07T04:42:01;3;3;
67802;PMS5003;72185;51.378;-1.342;2023-12-07T04:44:27;4;4;
67802;PMS5003;72185;51.378;-1.342;2023-12-07T04:46:52;3;3;
67802;PMS5003;72185;51.378;-1.342;2023-12-07T04:49:18;4;4;
67802;PMS5003;72185;51.378;-1.342;2023-12-07T04:51:43;4;4;
67802;PMS5003;72185;51.378;-1.342;2023-12-07T04:54:09;3;3;
67802;PMS5003;72185;51.378;-1.342;2023-12-07T04:56:35;4;4;
67802;PMS5003;72185;51.378;-1.342;2023-12-07T04:59:00;4;4;
67802;PMS5003;72185;51.378;-1.342;2023-12-07T05:01:26;2;2;
67802;PMS5003;72185;51.378;-1.342;2023-12-07T05:03:51;3;3;
67802;PMS5003;72185;51.378;-1.342;2023-12-07T05:06:17;4;4;
67802;PMS5003;72185;51.378;-1.342;2023-12-07T05:08:43;4;4;
67802;PMS5003;72185;51.378;-1.342;2023-12-07T05:11:08;3;2;
67802;PMS5003;72185;51.378;-1.342;2023-12-07T05:13:34;3;3;
67802;PMS5003;72185;51.378;-1.342;2023-12-07T05:15:59;3;3;
67802;PMS5003;72185;51.378;-1.342;2023-12-07T05:18:25;3;3;
67802;PMS5003;72185;51.378;-1.342;2023-12-07T05:20:51;4;4;
67802;PMS5003;72185;51.378;-1.342;2023-12-07T05:23:16;2;2;
67802;PMS5003;72185;51.378;-1.342;2023-12-07T05:25:42;3;3;
67802;PMS5003;72185;51.378;-1.342;2023-12-07T05:28:07;3;3;
67802;PMS5003;72185;51.378;-1.342;2023-12-07T05:30:33;2;2;
67802;PMS5003;72185;51.378;-1.342;2023-12-07T05:32:58;2;2;
67802;PMS5003;72185;51.378;-1.342;2023-12-07T05:35:24;3;3;
67802;PMS5003;72185;51.378;-1.342;2023-12-07T05:37:50;2;2;
67802;PMS5003;72185;51.378;-1.342;2023-12-07T05:40:15;2;2;
67802;PMS5003;72185;51.378;-1.342;2023-12-07T05:42:41;3;3;
67802;PMS5003;72185;51.378;-1.342;2023-12-07T05:45:07;1;1;
67802;PMS5003;72185;51.378;-1.342;2023-12-07T05:47:32;2;2;
67802;PMS5003;72185;51.378;-1.342;2023-12-07T05:49:58;3;3;
67802;PMS5003;72185;51.378;-1.342;2023-12-07T05:52:23;2;2;
67802;PMS5003;72185;51.378;-1.342;2023-12-07T05:54:49;3;3;
67802;PMS5003;72185;51.378;-1.342;2023-12-07T05:57:14;4;4;
67802;PMS5003;72185;51.378;-1.342;2023-12-07T05:59:40;3;3;
67802;PMS5003;72185;51.378;-1.342;2023-12-07T06:02:06;2;2;
67802;PMS5003;72185;51.378;-1.342;2023-12-07T06:04:31;2;2;
67802;PMS5003;72185;51.378;-1.342;2023-12-07T06:06:57;4;4;
67802;PMS5003;72185;51.378;-1.342;2023-12-07T06:09:22;4;4;
67802;PMS5003;72185;51.378;-1.342;2023-12-07T06:11:48;3;3;
67802;PMS5003;72185;51.378;-1.342;2023-12-07T06:14:14;2;2;
67802;PMS5003;72185;51.378;-1.342;2023-12-07T06:16:39;2;2;
67802;PMS5003;72185;51.378;-1.342;2023-12-07T06:19:05;4;4;
67802;PMS5003;72185;51.378;-1.342;2023-12-07T06:21:30;3;3;
67802;PMS5003;72185;51.378;-1.342;2023-12-07T06:23:56;3;3;
67802;PMS5003;72185;51.378;-1.342;2023-12-07T06:26:22;3;3;
67802;PMS5003;72185;51.378;-1.342;2023-12-07T06:28:47;3;3;
67802;PMS5003;72185;51.378;-1.342;2023-12-07T06:31:13;4;4;
67802;PMS5003;72185;51.378;-1.342;2023-12-07T06:33:38;3;3;
67802;PMS5003;72185;51.378;-1.342;2023-12-07T06:36:04;2;2;
67802;PMS5003;72185;51.378;-1.342;2023-12-07T06:38:30;2;2;
67802;PMS5003;72185;51.378;-1.342;2023-12-07T06:40:55;3;3;
67802;PMS5003;72185;51.378;-1.342;2023-12-07T06:43:21;3;3;
67802;PMS5003;72185;51.378;-1.342;2023-12-07T06:45:46;2;2;
67802;PMS5003;72185;51.378;-1.342;2023-12-07T06:48:12;4;3;
67802;PMS5003;72185;51.378;-1.342;2023-12-07T06:50:38;3;3;
67802;PMS5003;72185;51.378;-1.342;2023-12-07T06:53:03;3;3;
67802;PMS5003;72185;51.378;-1.342;2023-12-07T06:55:29;2;2;
67802;PMS5003;72185;51.378;-1.342;2023-12-07T06:57:54;4;4;
67802;PMS5003;72185;51.378;-1.342;2023-12-07T07:00:20;2;2;
67802;PMS5003;72185;51.378;-1.342;2023-12-07T07:02:46;2;2;
67802;PMS5003;72185;51.378;-1.342;2023-12-07T07:05:11;3;3;
67802;PMS5003;72185;51.378;-1.342;2023-12-07T07:07:37;3;3;
67802;PMS5003;72185;51.378;-1.342;2023-12-07T07:10:02;2;2;
67802;PMS5003;72185;51.378;-1.342;2023-12-07T07:12:28;3;3;
67802;PMS5003;72185;51.378;-1.342;2023-12-07T07:14:53;2;2;
67802;PMS5003;72185;51.378;-1.342;2023-12-07T07:17:19;2;2;
67802;PMS5003;72185;51.378;-1.342;2023-12-07T07:19:45;1;1;
67802;PMS5003;72185;51.378;-1.342;2023-12-07T07:22:10;1;1;
67802;PMS5003;72185;51.378;-1.342;2023-12-07T07:24:36;1;1;
67802;PMS5003;72185;51.378;-1.342;2023-12-07T07:27:01;2;2;
67802;PMS5003;72185;51.378;-1.342;2023-12-07T07:29:27;4;4;
67802;PMS5003;72185;51.378;-1.342;2023-12-07T07:31:53;5;4;
67802;PMS5003;72185;51.378;-1.342;2023-12-07T07:34:18;1;1;
67802;PMS5003;72185;51.378;-1.342;2023-12-07T07:36:44;2;2;
67802;PMS5003;72185;51.378;-1.342;2023-12-07T07:39:09;2;2;
67802;PMS5003;72185;51.378;-1.342;2023-12-07T07:41:35;2;2;
67802;PMS5003;72185;51.378;-1.342;2023-12-07T07:44:01;2;2;
67802;PMS5003;72185;51.378;-1.342;2023-12-07T07:46:26;2;2;
67802;PMS5003;72185;51.378;-1.342;2023-12-07T07:48:52;2;2;
67802;PMS5003;72185;51.378;-1.342;2023-12-07T07:51:17;3;3;
67802;PMS5003;72185;51.378;-1.342;2023-12-07T07:53:43;2;2;
67802;PMS5003;72185;51.378;-1.342;2023-12-07T07:56:09;2;2;
67802;PMS5003;72185;51.378;-1.342;2023-12-07T07:58:34;2;2;
67802;PMS5003;72185;51.378;-1.342;2023-12-07T08:01:00;1;1;
67802;PMS5003;72185;51.378;-1.342;2023-12-07T08:03:25;2;2;
67802;PMS5003;72185;51.378;-1.342;2023-12-07T08:05:51;2;2;
67802;PMS5003;72185;51.378;-1.342;2023-12-07T08:08:17;2;2;
67802;PMS5003;72185;51.378;-1.342;2023-12-07T08:10:42;3;2;
67802;PMS5003;72185;51.378;-1.342;2023-12-07T08:13:08;2;2;
67802;PMS5003;72185;51.378;-1.342;2023-12-07T08:15:33;2;2;
67802;PMS5003;72185;51.378;-1.342;2023-12-07T08:17:59;2;2;
67802;PMS5003;72185;51.378;-1.342;2023-12-07T08:20:24;2;2;
67802;PMS5003;72185;51.378;-1.342;2023-12-07T08:22:50;2;2;
67802;PMS5003;72185;51.378;-1.342;2023-12-07T08:25:16;2;2;
67802;PMS5003;72185;51.378;-1.342;2023-12-07T08:27:41;2;2;
67802;PMS5003;72185;51.378;-1.342;2023-12-07T08:30:07;3;2;
67802;PMS5003;72185;51.378;-1.342;2023-12-07T08:32:33;2;2;
67802;PMS5003;72185;51.378;-1.342;2023-12-07T08:34:58;2;2;
67802;PMS5003;72185;51.378;-1.342;2023-12-07T08:37:24;2;2;
67802;PMS5003;72185;51.378;-1.342;2023-12-07T08:39:49;2;2;
67802;PMS5003;72185;51.378;-1.342;2023-12-07T08:42:15;1;1;
67802;PMS5003;72185;51.378;-1.342;2023-12-07T08:44:42;2;2;
67802;PMS5003;72185;51.378;-1.342;2023-12-07T08:47:06;2;2;
67802;PMS5003;72185;51.378;-1.342;2023-12-07T08:49:32;1;1;
67802;PMS5003;72185;51.378;-1.342;2023-12-07T08:51:57;3;3;
67802;PMS5003;72185;51.378;-1.342;2023-12-07T08:54:23;1;1;
67802;PMS5003;72185;51.378;-1.342;2023-12-07T08:56:48;2;2;
67802;PMS5003;72185;51.378;-1.342;2023-12-07T08:59:14;2;2;
67802;PMS5003;72185;51.378;-1.342;2023-12-07T09:01:40;3;3;
67802;PMS5003;72185;51.378;-1.342;2023-12-07T09:04:05;1;1;
67802;PMS5003;72185;51.378;-1.342;2023-12-07T09:06:31;1;1;
67802;PMS5003;72185;51.378;-1.342;2023-12-07T09:08:56;3;3;
67802;PMS5003;72185;51.378;-1.342;2023-12-07T09:11:22;3;3;
67802;PMS5003;72185;51.378;-1.342;2023-12-07T09:13:47;2;2;
67802;PMS5003;72185;51.378;-1.342;2023-12-07T09:16:13;2;2;
67802;PMS5003;72185;51.378;-1.342;2023-12-07T09:18:39;2;2;
67802;PMS5003;72185;51.378;-1.342;2023-12-07T09:21:04;2;2;
67802;PMS5003;72185;51.378;-1.342;2023-12-07T09:23:31;3;3;
67802;PMS5003;72185;51.378;-1.342;2023-12-07T09:25:55;1;1;
67802;PMS5003;72185;51.378;-1.342;2023-12-07T09:28:21;1;1;
67802;PMS5003;72185;51.378;-1.342;2023-12-07T09:30:46;2;2;
67802;PMS5003;72185;51.378;-1.342;2023-12-07T09:33:12;2;2;
67802;PMS5003;72185;51.378;-1.342;2023-12-07T09:35:38;3;3;
67802;PMS5003;72185;51.378;-1.342;2023-12-07T09:38:03;3;2;
67802;PMS5003;72185;51.378;-1.342;2023-12-07T09:40:29;4;3;
67802;PMS5003;72185;51.378;-1.342;2023-12-07T09:42:54;2;2;
67802;PMS5003;72185;51.378;-1.342;2023-12-07T09:45:20;2;2;
67802;PMS5003;72185;51.378;-1.342;2023-12-07T09:47:47;3;3;
67802;PMS5003;72185;51.378;-1.342;2023-12-07T09:50:11;1;1;
67802;PMS5003;72185;51.378;-1.342;2023-12-07T09:52:37;2;2;
67802;PMS5003;72185;51.378;-1.342;2023-12-07T09:55:03;2;2;
67802;PMS5003;72185;51.378;-1.342;2023-12-07T09:57:28;2;2;
67802;PMS5003;72185;51.378;-1.342;2023-12-07T09:59:54;1;1;
67802;PMS5003;72185;51.378;-1.342;2023-12-07T10:02:19;2;2;
67802;PMS5003;72185;51.378;-1.342;2023-12-07T10:04:45;2;2;
67802;PMS5003;72185;51.378;-1.342;2023-12-07T10:07:10;2;2;
67802;PMS5003;72185;51.378;-1.342;2023-12-07T10:09:38;2;2;
67802;PMS5003;72185;51.378;-1.342;2023-12-07T10:12:02;2;2;
67802;PMS5003;72185;51.378;-1.342;2023-12-07T10:14:27;4;3;
67802;PMS5003;72185;51.378;-1.342;2023-12-07T10:16:53;2;2;
67802;PMS5003;72185;51.378;-1.342;2023-12-07T10:19:18;3;3;
67802;PMS5003;72185;51.378;-1.342;2023-12-07T10:21:44;2;2;
67802;PMS5003;72185;51.378;-1.342;2023-12-07T10:24:09;1;1;
67802;PMS5003;72185;51.378;-1.342;2023-12-07T10:26:35;2;2;
67802;PMS5003;72185;51.378;-1.342;2023-12-07T10:29:01;2;2;
67802;PMS5003;72185;51.378;-1.342;2023-12-07T10:31:26;2;2;
67802;PMS5003;72185;51.378;-1.342;2023-12-07T10:33:52;2;2;
67802;PMS5003;72185;51.378;-1.342;2023-12-07T10:36:17;3;3;
67802;PMS5003;72185;51.378;-1.342;2023-12-07T10:38:43;2;2;
67802;PMS5003;72185;51.378;-1.342;2023-12-07T10:41:09;2;1;
67802;PMS5003;72185;51.378;-1.342;2023-12-07T10:43:37;1;1;
67802;PMS5003;72185;51.378;-1.342;2023-12-07T10:46:00;2;2;
67802;PMS5003;72185;51.378;-1.342;2023-12-07T10:48:25;2;2;
67802;PMS5003;72185;51.378;-1.342;2023-12-07T10:50:51;2;2;
67802;PMS5003;72185;51.378;-1.342;2023-12-07T10:53:19;1;1;
67802;PMS5003;72185;51.378;-1.342;2023-12-07T10:58:07;2;2;
67802;PMS5003;72185;51.378;-1.342;2023-12-07T11:00:33;2;2;
67802;PMS5003;72185;51.378;-1.342;2023-12-07T11:02:59;2;2;
67802;PMS5003;72185;51.378;-1.342;2023-12-07T11:05:24;1;1;
67802;PMS5003;72185;51.378;-1.342;2023-12-07T11:07:52;2;2;
67802;PMS5003;72185;51.378;-1.342;2023-12-07T11:10:19;2;2;
67802;PMS5003;72185;51.378;-1.342;2023-12-07T11:12:43;2;2;
67802;PMS5003;72185;51.378;-1.342;2023-12-07T11:15:07;2;2;
67802;PMS5003;72185;51.378;-1.342;2023-12-07T11:19:58;2;2;
67802;PMS5003;72185;51.378;-1.342;2023-12-07T11:22:23;2;2;
67802;PMS5003;72185;51.378;-1.342;2023-12-07T11:24:53;4;3;
67802;PMS5003;72185;51.378;-1.342;2023-12-07T11:27:14;2;2;
67802;PMS5003;72185;51.378;-1.342;2023-12-07T11:29:40;1;1;
67802;PMS5003;72185;51.378;-1.342;2023-12-07T11:32:05;1;1;
67802;PMS5003;72185;51.378;-1.342;2023-12-07T11:34:34;1;1;
67802;PMS5003;72185;51.378;-1.342;2023-12-07T11:36:56;2;2;
67802;PMS5003;72185;51.378;-1.342;2023-12-07T11:39:22;1;1;
67802;PMS5003;72185;51.378;-1.342;2023-12-07T11:41:49;1;1;
67802;PMS5003;72185;51.378;-1.342;2023-12-07T11:44:13;2;2;
67802;PMS5003;72185;51.378;-1.342;2023-12-07T11:46:39;1;1;
67802;PMS5003;72185;51.378;-1.342;2023-12-07T11:49:04;2;2;
67802;PMS5003;72185;51.378;-1.342;2023-12-07T11:51:30;2;2;
67802;PMS5003;72185;51.378;-1.342;2023-12-07T11:53:56;3;3;
67802;PMS5003;72185;51.378;-1.342;2023-12-07T11:56:21;1;1;
67802;PMS5003;72185;51.378;-1.342;2023-12-07T11:58:47;1;1;
67802;PMS5003;72185;51.378;-1.342;2023-12-07T12:01:12;2;2;
67802;PMS5003;72185;51.378;-1.342;2023-12-07T12:03:38;2;2;
67802;PMS5003;72185;51.378;-1.342;2023-12-07T12:06:04;1;1;
67802;PMS5003;72185;51.378;-1.342;2023-12-07T12:08:29;2;2;
67802;PMS5003;72185;51.378;-1.342;2023-12-07T12:10:55;2;1;
67802;PMS5003;72185;51.378;-1.342;2023-12-07T12:13:20;1;1;
67802;PMS5003;72185;51.378;-1.342;2023-12-07T12:15:46;3;3;
67802;PMS5003;72185;51.378;-1.342;2023-12-07T12:18:11;1;1;
67802;PMS5003;72185;51.378;-1.342;2023-12-07T12:20:37;2;2;
67802;PMS5003;72185;51.378;-1.342;2023-12-07T12:23:03;1;1;
67802;PMS5003;72185;51.378;-1.342;2023-12-07T12:25:28;2;2;
67802;PMS5003;72185;51.378;-1.342;2023-12-07T12:27:54;2;1;
67802;PMS5003;72185;51.378;-1.342;2023-12-07T12:30:20;3;3;
67802;PMS5003;72185;51.378;-1.342;2023-12-07T12:32:45;1;1;
67802;PMS5003;72185;51.378;-1.342;2023-12-07T12:35:10;1;1;
67802;PMS5003;72185;51.378;-1.342;2023-12-07T12:37:36;2;2;
67802;PMS5003;72185;51.378;-1.342;2023-12-07T12:40:04;2;2;
67802;PMS5003;72185;51.378;-1.342;2023-12-07T12:42:27;1;1;
67802;PMS5003;72185;51.378;-1.342;2023-12-07T12:44:53;2;2;
67802;PMS5003;72185;51.378;-1.342;2023-12-07T12:47:18;1;1;
67802;PMS5003;72185;51.378;-1.342;2023-12-07T12:49:44;2;2;
67802;PMS5003;72185;51.378;-1.342;2023-12-07T12:52:10;1;1;
67802;PMS5003;72185;51.378;-1.342;2023-12-07T12:54:35;3;3;
67802;PMS5003;72185;51.378;-1.342;2023-12-07T12:57:01;2;2;
67802;PMS5003;72185;51.378;-1.342;2023-12-07T12:59:26;1;1;
67802;PMS5003;72185;51.378;-1.342;2023-12-07T13:01:52;2;2;
67802;PMS5003;72185;51.378;-1.342;2023-12-07T13:04:17;2;2;
67802;PMS5003;72185;51.378;-1.342;2023-12-07T13:06:43;1;1;
67802;PMS5003;72185;51.378;-1.342;2023-12-07T13:09:08;3;3;
67802;PMS5003;72185;51.378;-1.342;2023-12-07T13:11:34;2;2;
67802;PMS5003;72185;51.378;-1.342;2023-12-07T13:14:00;2;2;
67802;PMS5003;72185;51.378;-1.342;2023-12-07T13:16:25;2;2;
67802;PMS5003;72185;51.378;-1.342;2023-12-07T13:18:51;2;2;
67802;PMS5003;72185;51.378;-1.342;2023-12-07T13:21:16;1;1;
67802;PMS5003;72185;51.378;-1.342;2023-12-07T13:23:42;1;1;
67802;PMS5003;72185;51.378;-1.342;2023-12-07T13:26:07;2;2;
67802;PMS5003;72185;51.378;-1.342;2023-12-07T13:28:33;1;1;
67802;PMS5003;72185;51.378;-1.342;2023-12-07T13:30:59;2;2;
67802;PMS5003;72185;51.378;-1.342;2023-12-07T13:33:24;2;1;
67802;PMS5003;72185;51.378;-1.342;2023-12-07T13:35:50;2;2;
67802;PMS5003;72185;51.378;-1.342;2023-12-07T13:38:15;2;2;
67802;PMS5003;72185;51.378;-1.342;2023-12-07T13:40:41;1;1;
67802;PMS5003;72185;51.378;-1.342;2023-12-07T13:43:07;1;1;
67802;PMS5003;72185;51.378;-1.342;2023-12-07T13:45:32;1;1;
67802;PMS5003;72185;51.378;-1.342;2023-12-07T13:47:58;0;0;
67802;PMS5003;72185;51.378;-1.342;2023-12-07T13:50:23;2;2;
67802;PMS5003;72185;51.378;-1.342;2023-12-07T13:52:49;2;2;
67802;PMS5003;72185;51.378;-1.342;2023-12-07T13:55:14;2;2;
67802;PMS5003;72185;51.378;-1.342;2023-12-07T13:57:40;1;1;
67802;PMS5003;72185;51.378;-1.342;2023-12-07T14:00:06;1;1;
67802;PMS5003;72185;51.378;-1.342;2023-12-07T14:02:31;1;1;
67802;PMS5003;72185;51.378;-1.342;2023-12-07T14:04:57;1;1;
67802;PMS5003;72185;51.378;-1.342;2023-12-07T14:07:22;1;1;
67802;PMS5003;72185;51.378;-1.342;2023-12-07T14:09:49;0;0;
67802;PMS5003;72185;51.378;-1.342;2023-12-07T14:12:14;1;1;
67802;PMS5003;72185;51.378;-1.342;2023-12-07T14:14:39;1;1;
67802;PMS5003;72185;51.378;-1.342;2023-12-07T14:17:05;1;0;
67802;PMS5003;72185;51.378;-1.342;2023-12-07T14:19:30;1;0;
67802;PMS5003;72185;51.378;-1.342;2023-12-07T14:21:56;1;1;
67802;PMS5003;72185;51.378;-1.342;2023-12-07T14:24:22;1;1;
67802;PMS5003;72185;51.378;-1.342;2023-12-07T14:26:47;0;0;
67802;PMS5003;72185;51.378;-1.342;2023-12-07T14:29:13;1;1;
67802;PMS5003;72185;51.378;-1.342;2023-12-07T14:31:38;2;2;
67802;PMS5003;72185;51.378;-1.342;2023-12-07T14:34:04;1;1;
67802;PMS5003;72185;51.378;-1.342;2023-12-07T14:36:29;1;1;
67802;PMS5003;72185;51.378;-1.342;2023-12-07T14:38:55;1;1;
67802;PMS5003;72185;51.378;-1.342;2023-12-07T14:41:20;1;1;
67802;PMS5003;72185;51.378;-1.342;2023-12-07T14:43:46;1;1;
67802;PMS5003;72185;51.378;-1.342;2023-12-07T14:46:12;1;1;
67802;PMS5003;72185;51.378;-1.342;2023-12-07T14:48:37;1;1;
67802;PMS5003;72185;51.378;-1.342;2023-12-07T14:51:03;1;1;
67802;PMS5003;72185;51.378;-1.342;2023-12-07T14:53:28;1;1;
67802;PMS5003;72185;51.378;-1.342;2023-12-07T14:55:54;0;0;
67802;PMS5003;72185;51.378;-1.342;2023-12-07T14:58:20;0;0;
67802;PMS5003;72185;51.378;-1.342;2023-12-07T15:00:45;1;1;
67802;PMS5003;72185;51.378;-1.342;2023-12-07T15:03:11;1;1;
67802;PMS5003;72185;51.378;-1.342;2023-12-07T15:05:36;1;1;
67802;PMS5003;72185;51.378;-1.342;2023-12-07T15:08:02;0;0;
67802;PMS5003;72185;51.378;-1.342;2023-12-07T15:10:27;1;1;
67802;PMS5003;72185;51.378;-1.342;2023-12-07T15:12:53;1;1;
67802;PMS5003;72185;51.378;-1.342;2023-12-07T15:15:18;0;0;
67802;PMS5003;72185;51.378;-1.342;2023-12-07T15:17:44;1;1;
67802;PMS5003;72185;51.378;-1.342;2023-12-07T15:20:10;0;0;
67802;PMS5003;72185;51.378;-1.342;2023-12-07T15:22:35;0;0;
67802;PMS5003;72185;51.378;-1.342;2023-12-07T15:25:01;0;0;
67802;PMS5003;72185;51.378;-1.342;2023-12-07T15:27:26;2;1;
67802;PMS5003;72185;51.378;-1.342;2023-12-07T15:29:52;1;1;
67802;PMS5003;72185;51.378;-1.342;2023-12-07T15:32:18;0;0;
67802;PMS5003;72185;51.378;-1.342;2023-12-07T15:34:43;0;0;
67802;PMS5003;72185;51.378;-1.342;2023-12-07T15:37:09;1;1;
67802;PMS5003;72185;51.378;-1.342;2023-12-07T15:39:34;1;1;
67802;PMS5003;72185;51.378;-1.342;2023-12-07T15:42:00;0;0;
67802;PMS5003;72185;51.378;-1.342;2023-12-07T15:44:25;2;2;
67802;PMS5003;72185;51.378;-1.342;2023-12-07T15:46:51;1;1;
67802;PMS5003;72185;51.378;-1.342;2023-12-07T15:49:17;0;0;
67802;PMS5003;72185;51.378;-1.342;2023-12-07T15:51:42;0;0;
67802;PMS5003;72185;51.378;-1.342;2023-12-07T15:54:08;0;0;
67802;PMS5003;72185;51.378;-1.342;2023-12-07T15:58:59;1;1;
67802;PMS5003;72185;51.378;-1.342;2023-12-07T16:01:24;0;0;
67802;PMS5003;72185;51.378;-1.342;2023-12-07T16:03:50;0;0;
67802;PMS5003;72185;51.378;-1.342;2023-12-07T16:06:16;1;1;
67802;PMS5003;72185;51.378;-1.342;2023-12-07T16:08:41;1;1;
67802;PMS5003;72185;51.378;-1.342;2023-12-07T16:11:07;0;0;
67802;PMS5003;72185;51.378;-1.342;2023-12-07T16:13:32;0;0;
67802;PMS5003;72185;51.378;-1.342;2023-12-07T16:15:58;1;0;
67802;PMS5003;72185;51.378;-1.342;2023-12-07T16:18:24;0;0;
67802;PMS5003;72185;51.378;-1.342;2023-12-07T16:20:49;1;0;
67802;PMS5003;72185;51.378;-1.342;2023-12-07T16:23:15;0;0;
67802;PMS5003;72185;51.378;-1.342;2023-12-07T16:25:40;0;0;
67802;PMS5003;72185;51.378;-1.342;2023-12-07T16:28:06;0;0;